createdAt,value
2022-11-17T00:00:09.714Z,100.00
2022-11-17T00:02:36.475Z,99.92
2022-11-17T00:05:03.325Z,100.00
2022-11-17T00:07:30.740Z,100.00
2022-11-17T00:09:57.270Z,100.00
2022-11-17T00:12:26.175Z,100.00
2022-11-17T00:14:54.934Z,100.00
2022-11-17T00:17:21.356Z,100.00
2022-11-17T00:19:47.795Z,100.00
2022-11-17T00:22:14.247Z,100.00
2022-11-17T00:24:40.788Z,100.00
2022-11-17T00:27:07.630Z,100.00
2022-11-17T00:29:37.457Z,100.00
2022-11-17T00:32:05.975Z,100.00
2022-11-17T00:34:32.515Z,100.00
2022-11-17T00:36:58.940Z,100.00
2022-11-17T00:39:25.398Z,100.00
2022-11-17T00:41:51.778Z,100.00
2022-11-17T00:44:18.379Z,100.00
2022-11-17T00:46:45.087Z,100.00
2022-11-17T00:49:12.320Z,100.00
2022-11-17T00:51:39.085Z,100.00
2022-11-17T00:54:07.512Z,100.00
2022-11-17T00:56:34.003Z,100.00
2022-11-17T00:59:00.533Z,100.00
2022-11-17T01:01:27.437Z,100.00
2022-11-17T01:03:54.250Z,100.00
2022-11-17T01:06:20.671Z,100.00
2022-11-17T01:08:47.376Z,100.00
2022-11-17T01:11:16.447Z,100.00
2022-11-17T01:13:44.678Z,100.00
2022-11-17T01:16:20.178Z,100.00
2022-11-17T01:18:49.127Z,100.00
2022-11-17T01:21:21.524Z,100.00
2022-11-17T01:23:49.546Z,100.00
2022-11-17T01:26:18.757Z,100.00
2022-11-17T01:28:45.346Z,100.00
2022-11-17T01:31:23.443Z,100.00
2022-11-17T01:33:50.616Z,100.00
2022-11-17T01:36:22.575Z,100.00
2022-11-17T01:38:49.508Z,100.00
2022-11-17T01:41:22.199Z,100.00
2022-11-17T01:43:49.934Z,100.00
2022-11-17T01:46:32.839Z,100.00
2022-11-17T01:49:16.912Z,100.00
2022-11-17T01:51:48.407Z,100.00
2022-11-17T01:54:19.538Z,100.00
2022-11-17T01:56:49.525Z,100.00
2022-11-17T01:59:25.091Z,100.00
2022-11-17T02:01:53.960Z,100.00
2022-11-17T02:04:33.387Z,100.00
2022-11-17T02:07:05.353Z,100.00
2022-11-17T02:09:36.543Z,100.00
2022-11-17T02:12:04.139Z,100.00
2022-11-17T02:14:30.605Z,100.00
2022-11-17T02:16:59.936Z,100.00
2022-11-17T02:19:33.303Z,100.00
2022-11-17T02:22:05.764Z,100.00
2022-11-17T02:24:38.132Z,100.00
2022-11-17T02:27:21.134Z,100.00
2022-11-17T02:29:50.152Z,100.00
2022-11-17T02:32:24.718Z,100.00
2022-11-17T02:35:17.468Z,100.00
2022-11-17T02:37:56.036Z,100.00
2022-11-17T02:40:30.542Z,100.00
2022-11-17T02:43:00.142Z,100.00
2022-11-17T02:45:33.100Z,100.00
2022-11-17T02:48:02.021Z,100.00
2022-11-17T02:50:29.754Z,100.00
2022-11-17T02:52:56.604Z,100.00
2022-11-17T02:55:23.113Z,100.00
2022-11-17T02:57:49.557Z,100.00
2022-11-17T03:00:20.009Z,100.00
2022-11-17T03:03:07.843Z,100.00
2022-11-17T03:05:52.141Z,100.00
2022-11-17T03:08:43.389Z,100.00
2022-11-17T03:11:11.495Z,100.00
2022-11-17T03:13:49.340Z,100.00
2022-11-17T03:16:34.899Z,100.00
2022-11-17T03:19:31.044Z,100.00
2022-11-17T03:22:07.776Z,100.00
2022-11-17T03:24:41.847Z,100.00
2022-11-17T03:27:12.349Z,100.00
2022-11-17T03:29:42.843Z,100.00
2022-11-17T03:32:11.006Z,100.00
2022-11-17T03:34:43.893Z,100.00
2022-11-17T03:37:13.490Z,100.00
2022-11-17T03:39:49.597Z,100.00
2022-11-17T03:42:22.779Z,100.00
2022-11-17T03:45:14.227Z,100.00
2022-11-17T03:47:42.574Z,100.00
2022-11-17T03:50:16.477Z,100.00
2022-11-17T03:52:43.601Z,100.00
2022-11-17T03:55:10.744Z,100.00
2022-11-17T03:58:00.238Z,100.00
2022-11-17T04:00:26.693Z,100.00
2022-11-17T04:02:57.090Z,100.00
2022-11-17T04:05:23.664Z,100.00
2022-11-17T04:07:50.190Z,100.00
2022-11-17T04:10:22.399Z,100.00
2022-11-17T04:12:49.423Z,100.00
2022-11-17T04:15:15.997Z,100.00
2022-11-17T04:17:42.535Z,100.00
2022-11-17T04:20:09.892Z,100.00
2022-11-17T04:22:36.322Z,100.00
2022-11-17T04:25:02.804Z,100.00
2022-11-17T04:27:29.257Z,100.00
2022-11-17T04:29:55.657Z,100.00
2022-11-17T04:32:22.067Z,100.00
2022-11-17T04:34:48.539Z,100.00
2022-11-17T04:37:14.965Z,100.00
2022-11-17T04:39:41.424Z,100.00
2022-11-17T04:42:07.888Z,100.00
2022-11-17T04:44:34.363Z,100.00
2022-11-17T04:47:00.823Z,100.00
2022-11-17T04:49:27.266Z,100.00
2022-11-17T04:51:54.140Z,100.00
2022-11-17T04:54:23.397Z,100.00
2022-11-17T04:56:50.819Z,100.00
2022-11-17T04:59:17.863Z,100.00
2022-11-17T05:01:45.267Z,100.00
2022-11-17T05:04:14.350Z,100.00
2022-11-17T05:06:44.919Z,100.00
2022-11-17T05:09:14.613Z,100.00
2022-11-17T05:11:42.187Z,100.00
2022-11-17T05:14:09.233Z,100.00
2022-11-17T05:16:35.708Z,100.00
2022-11-17T05:19:02.418Z,100.00
2022-11-17T05:21:28.829Z,100.00
2022-11-17T05:23:56.008Z,100.00
2022-11-17T05:26:30.155Z,100.00
2022-11-17T05:28:58.761Z,100.00
2022-11-17T05:31:26.391Z,100.00
2022-11-17T05:33:53.300Z,100.00
2022-11-17T05:36:20.832Z,100.00
2022-11-17T05:38:47.962Z,100.00
2022-11-17T05:41:15.807Z,100.00
2022-11-17T05:43:42.695Z,100.00
2022-11-17T05:46:09.403Z,100.00
2022-11-17T05:48:36.287Z,100.00
2022-11-17T05:51:03.574Z,100.00
2022-11-17T05:53:30.618Z,100.00
2022-11-17T05:56:26.182Z,100.00
2022-11-17T05:59:11.263Z,100.00
2022-11-17T06:01:43.624Z,100.00
2022-11-17T06:04:11.036Z,100.00
2022-11-17T06:06:38.239Z,100.00
2022-11-17T06:09:04.801Z,100.00
2022-11-17T06:11:31.242Z,100.00
2022-11-17T06:13:57.687Z,100.00
2022-11-17T06:16:26.744Z,100.00
2022-11-17T06:19:26.770Z,100.00
2022-11-17T06:22:13.939Z,100.00
2022-11-17T06:24:42.714Z,100.00
2022-11-17T06:27:11.014Z,100.00
2022-11-17T06:29:43.671Z,100.00
2022-11-17T06:32:12.346Z,100.00
2022-11-17T06:34:38.854Z,100.00
2022-11-17T06:37:05.319Z,100.00
2022-11-17T06:39:31.870Z,100.00
2022-11-17T06:41:58.289Z,100.00
2022-11-17T06:44:24.694Z,100.00
2022-11-17T06:46:51.102Z,100.00
2022-11-17T06:49:17.522Z,100.00
2022-11-17T06:51:45.558Z,100.00
2022-11-17T06:54:12.732Z,100.00
2022-11-17T06:56:39.450Z,100.00
2022-11-17T06:59:05.968Z,100.00
2022-11-17T07:01:32.475Z,100.00
2022-11-17T07:03:59.036Z,100.00
2022-11-17T07:06:25.602Z,100.00
2022-11-17T07:08:52.086Z,100.00
2022-11-17T07:11:18.676Z,100.00
2022-11-17T07:13:45.181Z,100.00
2022-11-17T07:16:18.661Z,100.00
2022-11-17T07:18:48.552Z,100.00
2022-11-17T07:21:15.159Z,100.00
2022-11-17T07:23:43.727Z,100.00
2022-11-17T07:26:10.510Z,100.00
2022-11-17T07:28:37.302Z,100.00
2022-11-17T07:31:06.251Z,100.00
2022-11-17T07:33:32.836Z,100.00
2022-11-17T07:36:12.832Z,100.00
2022-11-17T07:38:40.219Z,100.00
2022-11-17T07:41:09.618Z,100.00
2022-11-17T07:43:36.877Z,100.00
2022-11-17T07:46:08.508Z,100.00
2022-11-17T07:48:36.064Z,100.00
2022-11-17T07:51:03.829Z,100.00
2022-11-17T07:53:31.318Z,100.00
2022-11-17T07:56:03.022Z,100.00
2022-11-17T07:58:29.988Z,100.00
2022-11-17T08:00:56.536Z,100.00
2022-11-17T08:03:23.275Z,100.00
2022-11-17T08:05:50.037Z,100.00
2022-11-17T08:08:16.541Z,100.00
2022-11-17T08:10:43.020Z,100.00
2022-11-17T08:13:09.533Z,100.00
2022-11-17T08:15:35.988Z,100.00
2022-11-17T08:18:02.967Z,100.00
2022-11-17T08:20:29.890Z,100.00
2022-11-17T08:22:56.679Z,100.00
2022-11-17T08:25:26.375Z,100.00
2022-11-17T08:27:57.394Z,100.00
2022-11-17T08:30:25.040Z,100.00
2022-11-17T08:32:53.551Z,100.00
2022-11-17T08:35:22.706Z,100.00
2022-11-17T08:37:49.311Z,100.00
2022-11-17T08:40:16.541Z,100.00
2022-11-17T08:42:42.993Z,100.00
2022-11-17T08:45:10.139Z,100.00
2022-11-17T08:47:37.557Z,100.00
2022-11-17T08:50:06.032Z,100.00
2022-11-17T08:52:32.705Z,100.00
2022-11-17T08:54:59.264Z,100.00
2022-11-17T08:57:25.863Z,100.00
2022-11-17T08:59:52.440Z,100.00
2022-11-17T09:02:18.977Z,100.00
2022-11-17T09:04:45.501Z,100.00
2022-11-17T09:07:12.043Z,100.00
2022-11-17T09:09:38.638Z,100.00
2022-11-17T09:12:05.404Z,100.00
2022-11-17T09:14:31.921Z,100.00
2022-11-17T09:16:58.385Z,100.00
2022-11-17T09:19:24.931Z,100.00
2022-11-17T09:21:51.389Z,100.00
2022-11-17T09:24:17.876Z,100.00
2022-11-17T09:26:44.351Z,100.00
2022-11-17T09:29:10.900Z,100.00
2022-11-17T09:31:37.720Z,100.00
2022-11-17T09:34:05.757Z,100.00
2022-11-17T09:36:33.306Z,100.00
2022-11-17T09:38:59.798Z,100.00
2022-11-17T09:41:32.096Z,100.00
2022-11-17T09:44:01.593Z,100.00
2022-11-17T09:46:34.247Z,100.00
2022-11-17T09:49:10.658Z,100.00
2022-11-17T09:51:40.859Z,100.00
2022-11-17T09:54:18.327Z,100.00
2022-11-17T09:56:47.423Z,100.00
2022-11-17T09:59:19.411Z,100.00
2022-11-17T10:01:45.993Z,100.00
2022-11-17T10:04:15.222Z,100.00
2022-11-17T10:06:44.765Z,100.00
2022-11-17T10:09:36.092Z,100.00
2022-11-17T10:12:16.075Z,100.00
2022-11-17T10:14:42.641Z,100.00
2022-11-17T10:17:10.051Z,100.00
2022-11-17T10:19:37.980Z,100.00
2022-11-17T10:22:04.355Z,100.00
2022-11-17T10:24:43.129Z,100.00
2022-11-17T10:27:27.665Z,100.00
2022-11-17T10:30:03.842Z,100.00
2022-11-17T10:32:32.824Z,100.00
2022-11-17T10:35:19.334Z,100.00
2022-11-17T10:37:59.716Z,100.00
2022-11-17T10:40:46.942Z,100.00
2022-11-17T10:43:13.418Z,100.00
2022-11-17T10:45:45.109Z,100.00
2022-11-17T10:48:31.689Z,100.00
2022-11-17T10:51:01.103Z,100.00
2022-11-17T10:53:39.504Z,100.00
2022-11-17T10:56:15.821Z,100.00
2022-11-17T10:58:59.518Z,100.00
2022-11-17T11:01:37.782Z,100.00
2022-11-17T11:04:06.636Z,100.00
2022-11-17T11:06:35.106Z,100.00
2022-11-17T11:09:21.467Z,100.00
2022-11-17T11:11:54.006Z,100.00
2022-11-17T11:14:41.587Z,100.00
2022-11-17T11:17:13.103Z,100.00
2022-11-17T11:19:45.513Z,100.00
2022-11-17T11:22:30.759Z,100.00
2022-11-17T11:25:33.999Z,100.00
2022-11-17T11:28:12.510Z,100.00
2022-11-17T11:30:54.458Z,100.00
2022-11-17T11:33:44.006Z,100.00
2022-11-17T11:36:25.730Z,100.00
2022-11-17T11:39:06.589Z,100.00
2022-11-17T11:41:48.057Z,100.00
2022-11-17T11:44:41.007Z,100.00
2022-11-17T11:47:23.168Z,100.00
2022-11-17T11:49:54.815Z,100.00
2022-11-17T11:52:24.252Z,100.00
2022-11-17T11:54:58.983Z,100.00
2022-11-17T11:57:43.736Z,100.00
2022-11-17T12:00:17.879Z,100.00
2022-11-17T12:02:51.206Z,100.00
2022-11-17T12:05:42.995Z,100.00
2022-11-17T12:08:44.551Z,100.00
2022-11-17T12:11:14.259Z,100.00
2022-11-17T12:13:48.404Z,100.00
2022-11-17T12:16:20.008Z,100.00
2022-11-17T12:18:46.466Z,100.00
2022-11-17T12:21:13.690Z,100.00
2022-11-17T12:23:49.309Z,100.00
2022-11-17T12:26:27.789Z,100.00
2022-11-17T12:29:19.175Z,100.00
2022-11-17T12:31:55.374Z,100.00
2022-11-17T12:34:24.872Z,100.00
2022-11-17T12:37:12.591Z,100.00
2022-11-17T12:39:54.794Z,100.00
2022-11-17T12:42:21.347Z,100.00
2022-11-17T12:44:47.724Z,100.00
2022-11-17T12:47:19.970Z,100.00
2022-11-17T12:50:14.503Z,100.00
2022-11-17T12:53:14.677Z,100.00
2022-11-17T12:55:50.124Z,100.00
2022-11-17T12:58:25.569Z,100.00
2022-11-17T13:01:43.168Z,100.00
2022-11-17T13:04:22.410Z,100.00
2022-11-17T13:07:05.965Z,100.00
2022-11-17T13:09:36.545Z,100.00
2022-11-17T13:12:09.498Z,100.00
2022-11-17T13:14:51.045Z,100.00
2022-11-17T13:17:20.441Z,100.00
2022-11-17T13:19:46.996Z,100.00
2022-11-17T13:22:16.927Z,100.00
2022-11-17T13:24:46.329Z,100.00
2022-11-17T13:27:21.898Z,100.00
2022-11-17T13:29:49.196Z,100.00
2022-11-17T13:32:15.661Z,100.00
2022-11-17T13:35:00.144Z,100.00
2022-11-17T13:37:29.093Z,100.00
2022-11-17T13:39:59.822Z,100.00
2022-11-17T13:42:30.053Z,100.00
2022-11-17T13:44:59.513Z,100.00
2022-11-17T13:47:38.317Z,100.00
2022-11-17T13:50:43.299Z,100.00
2022-11-17T13:53:12.619Z,100.00
2022-11-17T13:55:48.022Z,100.00
2022-11-17T13:58:36.884Z,100.00
2022-11-17T14:01:03.612Z,100.00
2022-11-17T14:03:38.691Z,100.00
2022-11-17T14:06:11.601Z,100.00
2022-11-17T14:08:40.865Z,100.00
2022-11-17T14:11:10.122Z,100.00
2022-11-17T14:13:46.937Z,100.00
2022-11-17T14:16:26.406Z,100.00
2022-11-17T14:18:59.270Z,100.00
2022-11-17T14:21:26.530Z,100.00
2022-11-17T14:24:02.841Z,100.00
2022-11-17T14:26:29.715Z,100.00
2022-11-17T14:28:56.643Z,100.00
2022-11-17T14:31:23.115Z,100.00
2022-11-17T14:33:49.558Z,100.00
2022-11-17T14:36:17.233Z,100.00
2022-11-17T14:38:45.371Z,100.00
2022-11-17T14:41:14.870Z,100.00
2022-11-17T14:43:41.304Z,100.00
2022-11-17T14:46:17.441Z,100.00
2022-11-17T14:48:43.946Z,100.00
2022-11-17T14:51:11.535Z,100.00
2022-11-17T14:53:41.936Z,100.00
2022-11-17T14:56:09.300Z,99.57
2022-11-17T14:58:36.361Z,100.00
2022-11-17T15:01:15.757Z,100.00
2022-11-17T15:03:42.277Z,99.30
2022-11-17T15:06:15.244Z,99.47
2022-11-17T15:08:45.205Z,100.00
2022-11-17T15:11:17.312Z,99.01
2022-11-17T15:13:43.880Z,99.60
2022-11-17T15:16:11.128Z,99.60
2022-11-17T15:18:38.179Z,99.08
2022-11-17T15:21:06.931Z,99.76
2022-11-17T15:23:36.436Z,98.80
2022-11-17T15:26:07.292Z,99.59
2022-11-17T15:28:33.823Z,99.93
2022-11-17T15:31:14.926Z,98.43
2022-11-17T15:33:42.481Z,98.16
2022-11-17T15:36:11.515Z,98.30
2022-11-17T15:38:39.653Z,97.10
2022-11-17T15:41:07.962Z,96.96
2022-11-17T15:43:39.588Z,98.65
2022-11-17T15:46:07.053Z,97.73
2022-11-17T15:48:34.595Z,97.92
2022-11-17T15:51:02.545Z,97.67
2022-11-17T15:53:33.739Z,97.75
2022-11-17T15:56:08.855Z,96.12
2022-11-17T15:58:35.739Z,97.71
2022-11-17T16:01:08.478Z,97.71
2022-11-17T16:03:35.159Z,96.70
2022-11-17T16:06:01.631Z,96.42
2022-11-17T16:08:28.131Z,95.53
2022-11-17T16:10:55.589Z,96.62
2022-11-17T16:13:22.080Z,95.20
2022-11-17T16:15:49.381Z,95.31
2022-11-17T16:18:16.407Z,96.00
2022-11-17T16:20:43.051Z,95.40
2022-11-17T16:23:09.616Z,96.02
2022-11-17T16:25:43.818Z,96.01
2022-11-17T16:28:11.065Z,96.24
2022-11-17T16:30:37.632Z,96.56
2022-11-17T16:33:09.958Z,96.31
2022-11-17T16:35:36.510Z,95.64
2022-11-17T16:38:03.012Z,96.25
2022-11-17T16:40:30.509Z,95.99
2022-11-17T16:43:00.110Z,95.48
2022-11-17T16:45:26.596Z,94.83
2022-11-17T16:47:53.029Z,95.31
2022-11-17T16:50:19.546Z,94.74
2022-11-17T16:52:46.015Z,94.65
2022-11-17T16:55:12.543Z,95.28
2022-11-17T16:57:38.966Z,96.07
2022-11-17T17:00:06.174Z,93.92
2022-11-17T17:02:32.661Z,94.75
2022-11-17T17:04:59.177Z,92.13
2022-11-17T17:07:25.747Z,93.73
2022-11-17T17:09:52.318Z,94.74
2022-11-17T17:12:18.787Z,94.35
2022-11-17T17:14:45.328Z,92.81
2022-11-17T17:17:11.723Z,92.37
2022-11-17T17:19:38.187Z,93.59
2022-11-17T17:22:04.593Z,91.67
2022-11-17T17:24:31.121Z,93.71
2022-11-17T17:26:57.542Z,93.15
2022-11-17T17:29:24.003Z,92.97
2022-11-17T17:31:50.423Z,91.76
2022-11-17T17:34:16.858Z,93.02
2022-11-17T17:36:43.351Z,92.80
2022-11-17T17:39:13.935Z,93.14
2022-11-17T17:41:40.909Z,93.19
2022-11-17T17:44:08.618Z,92.81
2022-11-17T17:46:37.295Z,91.19
2022-11-17T17:49:04.775Z,91.97
2022-11-17T17:51:31.401Z,93.09
2022-11-17T17:53:59.455Z,90.97
2022-11-17T17:56:26.728Z,90.79
2022-11-17T17:58:57.483Z,91.55
2022-11-17T18:01:28.988Z,91.61
2022-11-17T18:03:58.506Z,91.15
2022-11-17T18:06:24.941Z,90.34
2022-11-17T18:08:51.424Z,90.22
2022-11-17T18:11:19.904Z,91.07
2022-11-17T18:13:48.594Z,89.98
2022-11-17T18:16:23.574Z,90.48
2022-11-17T18:18:55.290Z,91.83
2022-11-17T18:21:21.889Z,91.48
2022-11-17T18:23:48.330Z,91.70
2022-11-17T18:26:17.680Z,89.72
2022-11-17T18:28:50.612Z,91.37
2022-11-17T18:31:17.076Z,90.16
2022-11-17T18:33:43.556Z,91.23
2022-11-17T18:36:10.103Z,90.29
2022-11-17T18:38:37.585Z,90.51
2022-11-17T18:41:09.625Z,90.31
2022-11-17T18:43:36.872Z,90.55
2022-11-17T18:46:05.396Z,90.66
2022-11-17T18:48:33.370Z,90.57
2022-11-17T18:51:18.655Z,91.30
2022-11-17T18:53:46.047Z,90.85
2022-11-17T18:56:14.944Z,90.76
2022-11-17T18:58:42.651Z,89.30
2022-11-17T19:01:15.972Z,91.30
2022-11-17T19:03:45.048Z,91.01
2022-11-17T19:06:12.692Z,90.80
2022-11-17T19:08:39.249Z,90.53
2022-11-17T19:11:07.351Z,89.28
2022-11-17T19:13:36.176Z,90.29
2022-11-17T19:16:14.050Z,90.73
2022-11-17T19:18:41.262Z,90.61
2022-11-17T19:21:09.066Z,91.10
2022-11-17T19:23:37.219Z,91.19
2022-11-17T19:26:14.862Z,91.63
2022-11-17T19:28:42.009Z,90.62
2022-11-17T19:31:11.183Z,91.00
2022-11-17T19:33:39.706Z,90.23
2022-11-17T19:36:14.836Z,89.81
2022-11-17T19:38:42.167Z,91.08
2022-11-17T19:41:13.892Z,90.90
2022-11-17T19:43:45.064Z,90.92
2022-11-17T19:46:15.066Z,91.55
2022-11-17T19:48:42.274Z,89.87
2022-11-17T19:51:29.434Z,91.46
2022-11-17T19:53:58.469Z,91.17
2022-11-17T19:56:26.098Z,91.18
2022-11-17T19:58:53.085Z,91.22
2022-11-17T20:01:30.237Z,89.96
2022-11-17T20:03:58.257Z,91.05
2022-11-17T20:06:27.620Z,89.55
2022-11-17T20:08:55.718Z,90.35
2022-11-17T20:11:24.854Z,90.23
2022-11-17T20:13:51.364Z,90.18
2022-11-17T20:16:22.885Z,90.11
2022-11-17T20:18:51.496Z,89.80
2022-11-17T20:21:18.623Z,89.03
2022-11-17T20:23:45.673Z,89.64
2022-11-17T20:26:15.396Z,90.31
2022-11-17T20:28:42.189Z,92.07
2022-11-17T20:31:10.930Z,90.92
2022-11-17T20:33:42.042Z,90.70
2022-11-17T20:36:11.467Z,90.40
2022-11-17T20:38:38.271Z,90.53
2022-11-17T20:41:05.580Z,91.15
2022-11-17T20:43:32.936Z,90.46
2022-11-17T20:45:59.393Z,90.98
2022-11-17T20:48:26.390Z,91.73
2022-11-17T20:51:20.052Z,92.33
2022-11-17T20:53:46.599Z,91.98
2022-11-17T20:56:14.288Z,92.51
2022-11-17T20:58:40.847Z,93.11
2022-11-17T21:01:12.867Z,92.82
2022-11-17T21:03:39.417Z,92.49
2022-11-17T21:06:06.295Z,91.34
2022-11-17T21:08:34.934Z,92.19
2022-11-17T21:11:04.531Z,93.98
2022-11-17T21:13:35.783Z,94.14
2022-11-17T21:16:06.628Z,94.31
2022-11-17T21:18:33.778Z,94.87
2022-11-17T21:21:00.540Z,95.39
2022-11-17T21:23:30.736Z,95.68
2022-11-17T21:25:57.155Z,95.60
2022-11-17T21:28:23.581Z,95.36
2022-11-17T21:30:50.089Z,96.65
2022-11-17T21:33:16.544Z,97.44
2022-11-17T21:35:43.046Z,97.38
2022-11-17T21:38:09.533Z,97.47
2022-11-17T21:40:36.000Z,98.06
2022-11-17T21:43:02.465Z,97.78
2022-11-17T21:45:28.989Z,97.33
2022-11-17T21:47:59.416Z,97.69
2022-11-17T21:50:26.112Z,98.34
2022-11-17T21:52:52.572Z,98.45
2022-11-17T21:55:19.119Z,98.37
2022-11-17T21:57:45.612Z,98.87
2022-11-17T22:00:12.441Z,98.74
2022-11-17T22:02:38.889Z,98.62
2022-11-17T22:05:05.780Z,98.71
2022-11-17T22:07:32.254Z,98.97
2022-11-17T22:09:58.749Z,99.45
2022-11-17T22:12:25.226Z,98.29
2022-11-17T22:14:51.714Z,98.21
2022-11-17T22:17:18.188Z,98.75
2022-11-17T22:19:44.711Z,99.22
2022-11-17T22:22:11.191Z,99.40
2022-11-17T22:24:39.630Z,98.05
2022-11-17T22:27:06.363Z,99.64
2022-11-17T22:29:33.286Z,99.03
2022-11-17T22:31:59.759Z,98.84
2022-11-17T22:34:26.249Z,99.24
2022-11-17T22:36:52.739Z,99.23
2022-11-17T22:39:19.519Z,98.48
2022-11-17T22:41:46.351Z,98.76
2022-11-17T22:44:14.106Z,98.40
2022-11-17T22:46:40.721Z,98.95
2022-11-17T22:49:07.203Z,99.00
2022-11-17T22:51:33.614Z,99.37
2022-11-17T22:54:00.414Z,98.41
2022-11-17T22:56:26.944Z,98.88
2022-11-17T22:58:59.327Z,99.31
2022-11-17T23:01:26.259Z,99.56
2022-11-17T23:03:52.816Z,99.44
2022-11-17T23:06:19.413Z,99.48
2022-11-17T23:08:45.889Z,99.44
2022-11-17T23:11:35.950Z,99.58
2022-11-17T23:13:59.308Z,99.74
2022-11-17T23:16:26.066Z,100.00
2022-11-17T23:18:56.447Z,99.50
2022-11-17T23:21:23.523Z,99.76
2022-11-17T23:23:50.305Z,99.22
2022-11-17T23:26:17.105Z,99.65
2022-11-17T23:28:44.764Z,99.75
2022-11-17T23:31:13.779Z,100.00
2022-11-17T23:33:42.831Z,100.00
2022-11-17T23:36:19.612Z,99.83
2022-11-17T23:38:46.728Z,99.80
2022-11-17T23:41:15.232Z,100.00
2022-11-17T23:43:42.097Z,99.92
2022-11-17T23:46:19.318Z,99.85
2022-11-17T23:48:45.864Z,100.00
2022-11-17T23:51:15.783Z,100.00
2022-11-17T23:53:42.702Z,100.00
2022-11-17T23:56:10.433Z,100.00
2022-11-17T23:58:37.432Z,99.68
